sensor_id;sensor_type;location;lat;lon;timestamp;pressure;altitude;pressure_sealevel;temperature;humidity
61908;BME280;47864;52.526;19.672;2023-04-07T00:00:46;101004.88;;;3.34;100.00
61908;BME280;47864;52.526;19.672;2023-04-07T00:02:48;100986.44;;;3.22;100.00
61908;BME280;47864;52.526;19.672;2023-04-07T00:04:49;100998.72;;;3.35;100.00
61908;BME280;47864;52.526;19.672;2023-04-07T00:06:51;100999.91;;;3.30;100.00
61908;BME280;47864;52.526;19.672;2023-04-07T00:08:52;101001.47;;;3.47;100.00
61908;BME280;47864;52.526;19.672;2023-04-07T00:10:54;100994.22;;;3.37;100.00
61908;BME280;47864;52.526;19.672;2023-04-07T00:12:55;100971.53;;;3.22;100.00
61908;BME280;47864;52.526;19.672;2023-04-07T00:14:57;100998.22;;;3.43;100.00
61908;BME280;47864;52.526;19.672;2023-04-07T00:16:58;100991.09;;;3.59;100.00
61908;BME280;47864;52.526;19.672;2023-04-07T00:19:00;100988.06;;;3.65;100.00
61908;BME280;47864;52.526;19.672;2023-04-07T00:21:01;100989.59;;;3.55;100.00
61908;BME280;47864;52.526;19.672;2023-04-07T00:23:03;100972.63;;;3.47;100.00
61908;BME280;47864;52.526;19.672;2023-04-07T00:25:05;100959.56;;;3.32;100.00
61908;BME280;47864;52.526;19.672;2023-04-07T00:27:06;100975.56;;;3.42;100.00
61908;BME280;47864;52.526;19.672;2023-04-07T00:29:08;100971.44;;;3.52;100.00
61908;BME280;47864;52.526;19.672;2023-04-07T00:31:10;100960.50;;;3.46;100.00
61908;BME280;47864;52.526;19.672;2023-04-07T00:33:12;100975.00;;;3.51;100.00
61908;BME280;47864;52.526;19.672;2023-04-07T00:35:14;100979.75;;;3.59;100.00
61908;BME280;47864;52.526;19.672;2023-04-07T00:37:15;100967.13;;;3.51;100.00
61908;BME280;47864;52.526;19.672;2023-04-07T00:39:17;100955.41;;;3.57;100.00
61908;BME280;47864;52.526;19.672;2023-04-07T00:41:18;100890.91;;;2.99;100.00
61908;BME280;47864;52.526;19.672;2023-04-07T00:43:20;100958.59;;;3.62;100.00
61908;BME280;47864;52.526;19.672;2023-04-07T00:45:21;100967.53;;;3.72;100.00
61908;BME280;47864;52.526;19.672;2023-04-07T00:47:23;100964.41;;;3.53;100.00
61908;BME280;47864;52.526;19.672;2023-04-07T00:49:26;100964.84;;;3.59;100.00
61908;BME280;47864;52.526;19.672;2023-04-07T00:51:27;100947.84;;;3.52;100.00
61908;BME280;47864;52.526;19.672;2023-04-07T00:53:31;100947.16;;;3.49;100.00
61908;BME280;47864;52.526;19.672;2023-04-07T00:55:32;100955.47;;;3.69;100.00
61908;BME280;47864;52.526;19.672;2023-04-07T00:57:34;100961.31;;;3.60;100.00
61908;BME280;47864;52.526;19.672;2023-04-07T00:59:35;100956.31;;;3.70;100.00
61908;BME280;47864;52.526;19.672;2023-04-07T01:01:46;100947.19;;;3.75;100.00
61908;BME280;47864;52.526;19.672;2023-04-07T01:03:57;100947.47;;;3.71;100.00
61908;BME280;47864;52.526;19.672;2023-04-07T01:06:04;100946.44;;;3.73;100.00
61908;BME280;47864;52.526;19.672;2023-04-07T01:10:36;100937.72;;;3.73;100.00
61908;BME280;47864;52.526;19.672;2023-04-07T01:12:50;100935.06;;;3.60;100.00
61908;BME280;47864;52.526;19.672;2023-04-07T01:14:57;100943.19;;;3.70;100.00
61908;BME280;47864;52.526;19.672;2023-04-07T01:17:02;100936.22;;;3.83;100.00
61908;BME280;47864;52.526;19.672;2023-04-07T01:19:15;100938.31;;;3.91;100.00
61908;BME280;47864;52.526;19.672;2023-04-07T01:21:22;100934.78;;;3.92;100.00
61908;BME280;47864;52.526;19.672;2023-04-07T01:24:00;100931.38;;;4.16;100.00
61908;BME280;47864;52.526;19.672;2023-04-07T01:26:19;100933.41;;;3.99;100.00
61908;BME280;47864;52.526;19.672;2023-04-07T01:28:48;100926.16;;;3.90;100.00
61908;BME280;47864;52.526;19.672;2023-04-07T01:30:57;100913.38;;;3.71;100.00
61908;BME280;47864;52.526;19.672;2023-04-07T01:33:01;100921.56;;;3.93;100.00
61908;BME280;47864;52.526;19.672;2023-04-07T01:35:04;100921.13;;;3.99;100.00
61908;BME280;47864;52.526;19.672;2023-04-07T01:37:07;100917.34;;;3.91;100.00
61908;BME280;47864;52.526;19.672;2023-04-07T01:39:10;100909.56;;;3.89;100.00
61908;BME280;47864;52.526;19.672;2023-04-07T01:41:13;100915.47;;;4.05;100.00
61908;BME280;47864;52.526;19.672;2023-04-07T01:43:16;100906.84;;;3.91;100.00
61908;BME280;47864;52.526;19.672;2023-04-07T01:45:19;100890.09;;;3.79;100.00
61908;BME280;47864;52.526;19.672;2023-04-07T01:47:21;100905.41;;;3.99;100.00
61908;BME280;47864;52.526;19.672;2023-04-07T01:49:24;100908.88;;;4.12;100.00
61908;BME280;47864;52.526;19.672;2023-04-07T01:51:27;100903.28;;;4.04;100.00
61908;BME280;47864;52.526;19.672;2023-04-07T01:53:30;100894.06;;;3.99;100.00
61908;BME280;47864;52.526;19.672;2023-04-07T01:55:33;100882.84;;;4.22;100.00
61908;BME280;47864;52.526;19.672;2023-04-07T01:57:34;100907.97;;;4.26;100.00
61908;BME280;47864;52.526;19.672;2023-04-07T01:59:36;100908.41;;;4.33;100.00
61908;BME280;47864;52.526;19.672;2023-04-07T02:01:37;100902.63;;;4.28;100.00
61908;BME280;47864;52.526;19.672;2023-04-07T02:03:43;100905.44;;;4.25;100.00
61908;BME280;47864;52.526;19.672;2023-04-07T02:05:49;100895.25;;;4.33;100.00
61908;BME280;47864;52.526;19.672;2023-04-07T02:07:56;100895.13;;;4.21;100.00
61908;BME280;47864;52.526;19.672;2023-04-07T02:10:01;100896.41;;;4.29;100.00
61908;BME280;47864;52.526;19.672;2023-04-07T02:12:07;100898.59;;;4.22;100.00
61908;BME280;47864;52.526;19.672;2023-04-07T02:14:10;100905.34;;;4.39;100.00
61908;BME280;47864;52.526;19.672;2023-04-07T02:16:12;100905.03;;;4.56;100.00
61908;BME280;47864;52.526;19.672;2023-04-07T02:18:15;100888.22;;;4.46;100.00
61908;BME280;47864;52.526;19.672;2023-04-07T02:20:19;100893.38;;;4.47;100.00
61908;BME280;47864;52.526;19.672;2023-04-07T02:22:20;100899.69;;;4.57;100.00
61908;BME280;47864;52.526;19.672;2023-04-07T02:24:22;100886.03;;;4.52;100.00
61908;BME280;47864;52.526;19.672;2023-04-07T02:26:24;100900.31;;;4.74;100.00
61908;BME280;47864;52.526;19.672;2023-04-07T02:28:25;100887.59;;;4.68;100.00
61908;BME280;47864;52.526;19.672;2023-04-07T02:30:27;100876.56;;;4.63;100.00
61908;BME280;47864;52.526;19.672;2023-04-07T02:32:30;100890.00;;;4.71;100.00
61908;BME280;47864;52.526;19.672;2023-04-07T02:34:31;100897.16;;;4.56;100.00
61908;BME280;47864;52.526;19.672;2023-04-07T02:36:33;100890.22;;;4.55;100.00
61908;BME280;47864;52.526;19.672;2023-04-07T02:38:35;100896.84;;;4.73;100.00
61908;BME280;47864;52.526;19.672;2023-04-07T02:40:36;100885.50;;;4.73;100.00
61908;BME280;47864;52.526;19.672;2023-04-07T02:42:38;100883.56;;;4.87;100.00
61908;BME280;47864;52.526;19.672;2023-04-07T02:44:40;100883.91;;;4.83;100.00
61908;BME280;47864;52.526;19.672;2023-04-07T02:46:41;100880.75;;;4.78;100.00
61908;BME280;47864;52.526;19.672;2023-04-07T02:48:43;100877.00;;;4.69;100.00
61908;BME280;47864;52.526;19.672;2023-04-07T02:50:44;100882.13;;;4.71;100.00
61908;BME280;47864;52.526;19.672;2023-04-07T02:52:46;100890.13;;;4.82;100.00
61908;BME280;47864;52.526;19.672;2023-04-07T02:54:47;100878.75;;;4.94;100.00
61908;BME280;47864;52.526;19.672;2023-04-07T02:56:49;100854.38;;;4.79;100.00
61908;BME280;47864;52.526;19.672;2023-04-07T02:58:50;100886.13;;;4.64;100.00
61908;BME280;47864;52.526;19.672;2023-04-07T03:00:52;100891.59;;;4.73;100.00
61908;BME280;47864;52.526;19.672;2023-04-07T03:02:53;100887.50;;;4.69;100.00
61908;BME280;47864;52.526;19.672;2023-04-07T03:04:55;100883.47;;;5.02;100.00
61908;BME280;47864;52.526;19.672;2023-04-07T03:06:57;100881.25;;;4.95;100.00
61908;BME280;47864;52.526;19.672;2023-04-07T03:08:59;100865.50;;;4.70;100.00
61908;BME280;47864;52.526;19.672;2023-04-07T03:11:00;100886.84;;;4.78;100.00
61908;BME280;47864;52.526;19.672;2023-04-07T03:13:02;100886.94;;;5.02;100.00
61908;BME280;47864;52.526;19.672;2023-04-07T03:15:04;100885.47;;;4.98;100.00
61908;BME280;47864;52.526;19.672;2023-04-07T03:17:05;100884.13;;;4.92;100.00
61908;BME280;47864;52.526;19.672;2023-04-07T03:19:08;100872.56;;;4.70;100.00
61908;BME280;47864;52.526;19.672;2023-04-07T03:21:09;100887.16;;;4.99;100.00
61908;BME280;47864;52.526;19.672;2023-04-07T03:23:11;100873.69;;;4.91;100.00
61908;BME280;47864;52.526;19.672;2023-04-07T03:25:12;100887.75;;;5.03;100.00
61908;BME280;47864;52.526;19.672;2023-04-07T03:27:14;100890.88;;;5.20;100.00
61908;BME280;47864;52.526;19.672;2023-04-07T03:29:16;100890.41;;;5.39;100.00
61908;BME280;47864;52.526;19.672;2023-04-07T03:31:17;100872.19;;;5.36;100.00
61908;BME280;47864;52.526;19.672;2023-04-07T03:33:19;100869.25;;;5.41;100.00
61908;BME280;47864;52.526;19.672;2023-04-07T03:35:20;100880.78;;;5.51;100.00
61908;BME280;47864;52.526;19.672;2023-04-07T03:37:22;100862.81;;;5.45;100.00
61908;BME280;47864;52.526;19.672;2023-04-07T03:39:24;100866.63;;;5.41;100.00
61908;BME280;47864;52.526;19.672;2023-04-07T03:41:25;100885.03;;;5.64;100.00
61908;BME280;47864;52.526;19.672;2023-04-07T03:43:26;100872.09;;;5.61;100.00
61908;BME280;47864;52.526;19.672;2023-04-07T03:45:28;100855.84;;;5.44;100.00
61908;BME280;47864;52.526;19.672;2023-04-07T03:47:30;100884.00;;;5.67;100.00
61908;BME280;47864;52.526;19.672;2023-04-07T03:49:31;100884.81;;;5.67;100.00
61908;BME280;47864;52.526;19.672;2023-04-07T03:51:33;100882.91;;;5.46;100.00
61908;BME280;47864;52.526;19.672;2023-04-07T03:53:34;100879.78;;;5.64;100.00
61908;BME280;47864;52.526;19.672;2023-04-07T03:55:36;100878.31;;;5.60;100.00
61908;BME280;47864;52.526;19.672;2023-04-07T03:57:41;100864.94;;;5.63;100.00
61908;BME280;47864;52.526;19.672;2023-04-07T03:59:42;100888.78;;;5.73;100.00
61908;BME280;47864;52.526;19.672;2023-04-07T04:01:44;100892.75;;;5.91;100.00
61908;BME280;47864;52.526;19.672;2023-04-07T04:03:46;100885.84;;;6.13;100.00
61908;BME280;47864;52.526;19.672;2023-04-07T04:05:47;100890.28;;;6.12;100.00
61908;BME280;47864;52.526;19.672;2023-04-07T04:07:49;100887.53;;;6.14;100.00
61908;BME280;47864;52.526;19.672;2023-04-07T04:09:50;100893.03;;;6.10;100.00
61908;BME280;47864;52.526;19.672;2023-04-07T04:11:52;100880.97;;;6.19;100.00
61908;BME280;47864;52.526;19.672;2023-04-07T04:13:53;100884.94;;;6.25;100.00
61908;BME280;47864;52.526;19.672;2023-04-07T04:15:55;100884.94;;;6.36;100.00
61908;BME280;47864;52.526;19.672;2023-04-07T04:17:57;100887.16;;;6.07;100.00
61908;BME280;47864;52.526;19.672;2023-04-07T04:19:58;100887.38;;;6.04;100.00
61908;BME280;47864;52.526;19.672;2023-04-07T04:22:00;100871.75;;;6.14;100.00
61908;BME280;47864;52.526;19.672;2023-04-07T04:24:01;100891.38;;;6.21;100.00
61908;BME280;47864;52.526;19.672;2023-04-07T04:26:03;100884.25;;;6.34;100.00
61908;BME280;47864;52.526;19.672;2023-04-07T04:28:04;100879.16;;;6.08;100.00
61908;BME280;47864;52.526;19.672;2023-04-07T04:30:06;100876.84;;;6.04;100.00
61908;BME280;47864;52.526;19.672;2023-04-07T04:32:08;100900.66;;;6.02;100.00
61908;BME280;47864;52.526;19.672;2023-04-07T04:34:09;100895.81;;;6.20;100.00
61908;BME280;47864;52.526;19.672;2023-04-07T04:36:11;100885.63;;;6.16;100.00
61908;BME280;47864;52.526;19.672;2023-04-07T04:38:12;100891.63;;;6.18;100.00
61908;BME280;47864;52.526;19.672;2023-04-07T04:40:14;100895.56;;;6.12;100.00
61908;BME280;47864;52.526;19.672;2023-04-07T04:42:15;100899.81;;;6.37;100.00
61908;BME280;47864;52.526;19.672;2023-04-07T04:44:17;100899.72;;;6.49;100.00
61908;BME280;47864;52.526;19.672;2023-04-07T04:46:18;100899.72;;;6.49;100.00
61908;BME280;47864;52.526;19.672;2023-04-07T04:48:20;100901.63;;;6.47;100.00
61908;BME280;47864;52.526;19.672;2023-04-07T04:50:21;100910.72;;;6.32;100.00
61908;BME280;47864;52.526;19.672;2023-04-07T04:52:23;100896.06;;;6.28;100.00
61908;BME280;47864;52.526;19.672;2023-04-07T04:54:25;100908.44;;;6.39;100.00
61908;BME280;47864;52.526;19.672;2023-04-07T04:56:26;100904.22;;;6.25;100.00
61908;BME280;47864;52.526;19.672;2023-04-07T04:58:28;100900.88;;;6.34;100.00
61908;BME280;47864;52.526;19.672;2023-04-07T05:00:29;100889.22;;;6.15;100.00
61908;BME280;47864;52.526;19.672;2023-04-07T05:02:30;100894.97;;;6.08;100.00
61908;BME280;47864;52.526;19.672;2023-04-07T05:04:32;100885.25;;;6.09;100.00
61908;BME280;47864;52.526;19.672;2023-04-07T05:06:34;100900.53;;;6.04;100.00
61908;BME280;47864;52.526;19.672;2023-04-07T05:08:36;100876.75;;;6.05;100.00
61908;BME280;47864;52.526;19.672;2023-04-07T05:10:37;100889.47;;;6.23;100.00
61908;BME280;47864;52.526;19.672;2023-04-07T05:12:39;100875.63;;;6.32;100.00
61908;BME280;47864;52.526;19.672;2023-04-07T05:14:40;100889.97;;;6.28;100.00
61908;BME280;47864;52.526;19.672;2023-04-07T05:16:43;100893.56;;;6.27;100.00
61908;BME280;47864;52.526;19.672;2023-04-07T05:18:44;100892.16;;;6.34;100.00
61908;BME280;47864;52.526;19.672;2023-04-07T05:20:47;100898.97;;;6.25;100.00
61908;BME280;47864;52.526;19.672;2023-04-07T05:22:50;100905.44;;;6.32;100.00
61908;BME280;47864;52.526;19.672;2023-04-07T05:24:51;100900.81;;;6.12;100.00
61908;BME280;47864;52.526;19.672;2023-04-07T05:26:52;100909.25;;;6.28;100.00
61908;BME280;47864;52.526;19.672;2023-04-07T05:28:54;100887.44;;;6.15;100.00
61908;BME280;47864;52.526;19.672;2023-04-07T05:30:56;100894.22;;;6.41;100.00
61908;BME280;47864;52.526;19.672;2023-04-07T05:32:57;100903.16;;;6.39;100.00
61908;BME280;47864;52.526;19.672;2023-04-07T05:34:59;100883.25;;;6.24;100.00
61908;BME280;47864;52.526;19.672;2023-04-07T05:37:01;100903.94;;;6.63;100.00
61908;BME280;47864;52.526;19.672;2023-04-07T05:39:02;100903.41;;;6.36;100.00
61908;BME280;47864;52.526;19.672;2023-04-07T05:41:04;100912.88;;;6.38;100.00
61908;BME280;47864;52.526;19.672;2023-04-07T05:43:05;100919.66;;;6.30;100.00
61908;BME280;47864;52.526;19.672;2023-04-07T05:45:09;100913.41;;;6.20;100.00
61908;BME280;47864;52.526;19.672;2023-04-07T05:47:10;100917.91;;;6.41;100.00
61908;BME280;47864;52.526;19.672;2023-04-07T05:49:13;100901.66;;;6.59;100.00
61908;BME280;47864;52.526;19.672;2023-04-07T05:51:20;100921.09;;;6.80;100.00
61908;BME280;47864;52.526;19.672;2023-04-07T05:53:22;100887.94;;;6.42;100.00
61908;BME280;47864;52.526;19.672;2023-04-07T05:55:23;100907.41;;;6.64;100.00
61908;BME280;47864;52.526;19.672;2023-04-07T05:57:25;100899.03;;;6.81;100.00
61908;BME280;47864;52.526;19.672;2023-04-07T05:59:26;100907.78;;;6.81;100.00
61908;BME280;47864;52.526;19.672;2023-04-07T06:01:28;100911.13;;;6.95;100.00
61908;BME280;47864;52.526;19.672;2023-04-07T06:03:29;100911.38;;;7.03;100.00
61908;BME280;47864;52.526;19.672;2023-04-07T06:05:32;100890.16;;;7.04;100.00
61908;BME280;47864;52.526;19.672;2023-04-07T06:07:33;100897.00;;;6.96;100.00
61908;BME280;47864;52.526;19.672;2023-04-07T06:09:35;100909.69;;;7.13;100.00
61908;BME280;47864;52.526;19.672;2023-04-07T06:11:37;100903.22;;;7.06;100.00
61908;BME280;47864;52.526;19.672;2023-04-07T06:13:38;100911.25;;;7.15;100.00
61908;BME280;47864;52.526;19.672;2023-04-07T06:15:42;100910.16;;;7.29;100.00
61908;BME280;47864;52.526;19.672;2023-04-07T06:17:44;100879.50;;;7.06;100.00
61908;BME280;47864;52.526;19.672;2023-04-07T06:19:45;100902.69;;;7.34;100.00
61908;BME280;47864;52.526;19.672;2023-04-07T06:21:47;100903.41;;;7.47;100.00
61908;BME280;47864;52.526;19.672;2023-04-07T06:23:49;100911.72;;;7.20;100.00
61908;BME280;47864;52.526;19.672;2023-04-07T06:25:51;100902.69;;;7.45;100.00
61908;BME280;47864;52.526;19.672;2023-04-07T06:27:53;100914.31;;;7.43;100.00
61908;BME280;47864;52.526;19.672;2023-04-07T06:29:55;100902.59;;;7.36;100.00
61908;BME280;47864;52.526;19.672;2023-04-07T06:31:57;100908.63;;;7.70;100.00
61908;BME280;47864;52.526;19.672;2023-04-07T06:33:58;100906.16;;;7.57;100.00
61908;BME280;47864;52.526;19.672;2023-04-07T06:36:00;100899.94;;;7.36;100.00
61908;BME280;47864;52.526;19.672;2023-04-07T06:38:01;100904.16;;;7.38;100.00
61908;BME280;47864;52.526;19.672;2023-04-07T06:40:03;100898.75;;;7.17;100.00
61908;BME280;47864;52.526;19.672;2023-04-07T06:42:05;100900.56;;;7.28;100.00
61908;BME280;47864;52.526;19.672;2023-04-07T06:44:06;100903.81;;;7.32;100.00
61908;BME280;47864;52.526;19.672;2023-04-07T06:46:09;100901.84;;;7.56;100.00
61908;BME280;47864;52.526;19.672;2023-04-07T06:48:11;100904.59;;;7.43;100.00
61908;BME280;47864;52.526;19.672;2023-04-07T06:50:12;100878.94;;;7.45;100.00
61908;BME280;47864;52.526;19.672;2023-04-07T06:52:14;100886.19;;;7.21;100.00
61908;BME280;47864;52.526;19.672;2023-04-07T06:54:16;100891.41;;;7.54;100.00
61908;BME280;47864;52.526;19.672;2023-04-07T06:56:17;100891.63;;;7.51;100.00
61908;BME280;47864;52.526;19.672;2023-04-07T06:58:19;100888.03;;;7.52;100.00
61908;BME280;47864;52.526;19.672;2023-04-07T07:00:21;100896.56;;;7.56;100.00
61908;BME280;47864;52.526;19.672;2023-04-07T07:02:22;100888.59;;;7.67;100.00
61908;BME280;47864;52.526;19.672;2023-04-07T07:04:24;100890.38;;;7.67;100.00
61908;BME280;47864;52.526;19.672;2023-04-07T07:06:26;100888.72;;;7.66;100.00
61908;BME280;47864;52.526;19.672;2023-04-07T07:08:27;100874.59;;;7.87;100.00
61908;BME280;47864;52.526;19.672;2023-04-07T07:10:29;100876.09;;;7.69;100.00
61908;BME280;47864;52.526;19.672;2023-04-07T07:12:31;100884.13;;;7.79;100.00
61908;BME280;47864;52.526;19.672;2023-04-07T07:14:32;100872.19;;;7.84;100.00
61908;BME280;47864;52.526;19.672;2023-04-07T07:16:33;100892.66;;;8.03;100.00
61908;BME280;47864;52.526;19.672;2023-04-07T07:18:35;100899.97;;;7.99;100.00
61908;BME280;47864;52.526;19.672;2023-04-07T07:20:36;100900.66;;;8.13;100.00
61908;BME280;47864;52.526;19.672;2023-04-07T07:22:38;100893.38;;;8.05;100.00
61908;BME280;47864;52.526;19.672;2023-04-07T07:24:40;100885.56;;;8.03;100.00
61908;BME280;47864;52.526;19.672;2023-04-07T07:26:41;100893.09;;;8.08;100.00
61908;BME280;47864;52.526;19.672;2023-04-07T07:28:44;100867.88;;;7.83;100.00
61908;BME280;47864;52.526;19.672;2023-04-07T07:30:46;100879.66;;;8.11;100.00
61908;BME280;47864;52.526;19.672;2023-04-07T07:32:48;100888.91;;;8.37;100.00
61908;BME280;47864;52.526;19.672;2023-04-07T07:34:50;100869.72;;;8.24;100.00
61908;BME280;47864;52.526;19.672;2023-04-07T07:36:52;100879.53;;;8.33;100.00
61908;BME280;47864;52.526;19.672;2023-04-07T07:38:53;100897.03;;;8.46;100.00
61908;BME280;47864;52.526;19.672;2023-04-07T07:40:54;100900.94;;;8.51;100.00
61908;BME280;47864;52.526;19.672;2023-04-07T07:42:56;100880.16;;;8.26;100.00
61908;BME280;47864;52.526;19.672;2023-04-07T07:44:58;100900.13;;;8.19;100.00
61908;BME280;47864;52.526;19.672;2023-04-07T07:47:00;100889.75;;;8.27;100.00
61908;BME280;47864;52.526;19.672;2023-04-07T07:49:01;100889.66;;;8.49;100.00
61908;BME280;47864;52.526;19.672;2023-04-07T07:51:03;100873.66;;;8.30;100.00
61908;BME280;47864;52.526;19.672;2023-04-07T07:53:05;100904.41;;;8.72;100.00
61908;BME280;47864;52.526;19.672;2023-04-07T07:55:07;100891.63;;;8.77;100.00
61908;BME280;47864;52.526;19.672;2023-04-07T07:57:08;100900.00;;;8.83;100.00
61908;BME280;47864;52.526;19.672;2023-04-07T07:59:10;100900.97;;;8.82;100.00
61908;BME280;47864;52.526;19.672;2023-04-07T08:01:11;100862.25;;;8.50;100.00
61908;BME280;47864;52.526;19.672;2023-04-07T08:03:13;100897.56;;;8.70;100.00
61908;BME280;47864;52.526;19.672;2023-04-07T08:05:14;100898.09;;;8.94;100.00
61908;BME280;47864;52.526;19.672;2023-04-07T08:07:16;100896.75;;;9.09;100.00
61908;BME280;47864;52.526;19.672;2023-04-07T08:09:18;100885.84;;;8.93;100.00
61908;BME280;47864;52.526;19.672;2023-04-07T08:11:19;100898.09;;;8.94;100.00
61908;BME280;47864;52.526;19.672;2023-04-07T08:13:21;100876.94;;;8.94;100.00
61908;BME280;47864;52.526;19.672;2023-04-07T08:15:23;100897.69;;;9.29;100.00
61908;BME280;47864;52.526;19.672;2023-04-07T08:17:24;100884.47;;;9.58;100.00
61908;BME280;47864;52.526;19.672;2023-04-07T08:19:26;100883.53;;;9.69;100.00
61908;BME280;47864;52.526;19.672;2023-04-07T08:21:27;100882.41;;;9.90;100.00
61908;BME280;47864;52.526;19.672;2023-04-07T08:23:29;100904.19;;;10.33;100.00
61908;BME280;47864;52.526;19.672;2023-04-07T08:25:30;100891.16;;;10.58;100.00
61908;BME280;47864;52.526;19.672;2023-04-07T08:27:32;100878.78;;;10.40;100.00
61908;BME280;47864;52.526;19.672;2023-04-07T08:29:33;100879.50;;;10.22;100.00
61908;BME280;47864;52.526;19.672;2023-04-07T08:31:35;100888.41;;;10.12;100.00
61908;BME280;47864;52.526;19.672;2023-04-07T08:33:39;100886.34;;;10.25;100.00
61908;BME280;47864;52.526;19.672;2023-04-07T08:35:40;100904.06;;;10.24;100.00
61908;BME280;47864;52.526;19.672;2023-04-07T08:37:42;100888.84;;;10.36;100.00
61908;BME280;47864;52.526;19.672;2023-04-07T08:39:43;100900.41;;;10.45;100.00
61908;BME280;47864;52.526;19.672;2023-04-07T08:41:45;100876.81;;;10.51;100.00
61908;BME280;47864;52.526;19.672;2023-04-07T08:43:48;100888.00;;;10.45;100.00
61908;BME280;47864;52.526;19.672;2023-04-07T08:45:51;100881.38;;;10.59;100.00
61908;BME280;47864;52.526;19.672;2023-04-07T08:47:57;100885.09;;;10.29;100.00
61908;BME280;47864;52.526;19.672;2023-04-07T08:50:02;100890.56;;;10.74;100.00
61908;BME280;47864;52.526;19.672;2023-04-07T08:52:05;100896.13;;;10.71;100.00
61908;BME280;47864;52.526;19.672;2023-04-07T08:54:11;100888.72;;;10.84;100.00
61908;BME280;47864;52.526;19.672;2023-04-07T08:56:13;100891.16;;;10.95;100.00
61908;BME280;47864;52.526;19.672;2023-04-07T08:58:15;100896.31;;;10.97;100.00
61908;BME280;47864;52.526;19.672;2023-04-07T09:00:17;100892.66;;;11.07;100.00
61908;BME280;47864;52.526;19.672;2023-04-07T09:02:19;100887.25;;;11.27;100.00
61908;BME280;47864;52.526;19.672;2023-04-07T09:04:21;100876.00;;;11.15;100.00
61908;BME280;47864;52.526;19.672;2023-04-07T09:06:23;100888.31;;;11.06;100.00
61908;BME280;47864;52.526;19.672;2023-04-07T09:08:24;100869.69;;;11.16;100.00
61908;BME280;47864;52.526;19.672;2023-04-07T09:10:26;100892.25;;;11.57;100.00
61908;BME280;47864;52.526;19.672;2023-04-07T09:12:28;100890.19;;;11.51;100.00
61908;BME280;47864;52.526;19.672;2023-04-07T09:14:30;100887.06;;;11.56;100.00
61908;BME280;47864;52.526;19.672;2023-04-07T09:16:32;100886.47;;;11.62;100.00
61908;BME280;47864;52.526;19.672;2023-04-07T09:18:33;100892.03;;;11.68;100.00
61908;BME280;47864;52.526;19.672;2023-04-07T09:21:00;100890.72;;;11.55;100.00
61908;BME280;47864;52.526;19.672;2023-04-07T09:23:02;100889.66;;;11.65;100.00
61908;BME280;47864;52.526;19.672;2023-04-07T09:25:16;100889.44;;;11.59;100.00
61908;BME280;47864;52.526;19.672;2023-04-07T09:27:18;100886.38;;;11.54;100.00
61908;BME280;47864;52.526;19.672;2023-04-07T09:29:20;100863.53;;;11.43;100.00
61908;BME280;47864;52.526;19.672;2023-04-07T09:31:22;100886.94;;;11.30;100.00
61908;BME280;47864;52.526;19.672;2023-04-07T09:33:27;100893.31;;;11.19;100.00
61908;BME280;47864;52.526;19.672;2023-04-07T09:35:28;100885.38;;;11.10;100.00
61908;BME280;47864;52.526;19.672;2023-04-07T09:37:30;100869.00;;;10.87;100.00
61908;BME280;47864;52.526;19.672;2023-04-07T09:39:32;100888.53;;;11.23;100.00
61908;BME280;47864;52.526;19.672;2023-04-07T09:41:33;100876.59;;;11.36;100.00
61908;BME280;47864;52.526;19.672;2023-04-07T09:43:39;100863.41;;;11.44;100.00
61908;BME280;47864;52.526;19.672;2023-04-07T09:45:41;100853.84;;;11.69;100.00
61908;BME280;47864;52.526;19.672;2023-04-07T09:47:42;100884.84;;;11.78;100.00
61908;BME280;47864;52.526;19.672;2023-04-07T09:49:49;100882.25;;;11.87;100.00
61908;BME280;47864;52.526;19.672;2023-04-07T09:52:03;100883.63;;;11.91;100.00
61908;BME280;47864;52.526;19.672;2023-04-07T09:54:05;100873.94;;;11.72;100.00
61908;BME280;47864;52.526;19.672;2023-04-07T09:56:09;100868.63;;;11.72;100.00
61908;BME280;47864;52.526;19.672;2023-04-07T09:58:11;100878.75;;;11.68;100.00
61908;BME280;47864;52.526;19.672;2023-04-07T10:00:13;100876.84;;;11.78;100.00
61908;BME280;47864;52.526;19.672;2023-04-07T10:02:15;100885.44;;;12.08;100.00
61908;BME280;47864;52.526;19.672;2023-04-07T10:04:17;100867.81;;;12.07;100.00
61908;BME280;47864;52.526;19.672;2023-04-07T10:06:19;100886.16;;;11.92;100.00
61908;BME280;47864;52.526;19.672;2023-04-07T10:08:21;100876.84;;;11.96;100.00
61908;BME280;47864;52.526;19.672;2023-04-07T10:10:23;100880.97;;;11.91;100.00
61908;BME280;47864;52.526;19.672;2023-04-07T10:12:26;100877.56;;;11.98;100.00
61908;BME280;47864;52.526;19.672;2023-04-07T10:14:31;100875.75;;;11.71;100.00
61908;BME280;47864;52.526;19.672;2023-04-07T10:16:33;100880.56;;;12.21;100.00
61908;BME280;47864;52.526;19.672;2023-04-07T10:18:35;100856.47;;;12.23;100.00
61908;BME280;47864;52.526;19.672;2023-04-07T10:20:40;100880.22;;;12.42;100.00
61908;BME280;47864;52.526;19.672;2023-04-07T10:22:43;100867.13;;;12.48;100.00
61908;BME280;47864;52.526;19.672;2023-04-07T10:25:07;100875.19;;;12.13;100.00
61908;BME280;47864;52.526;19.672;2023-04-07T10:27:13;100872.50;;;12.13;100.00
61908;BME280;47864;52.526;19.672;2023-04-07T10:29:16;100861.69;;;11.89;100.00
61908;BME280;47864;52.526;19.672;2023-04-07T10:31:19;100872.78;;;11.84;100.00
61908;BME280;47864;52.526;19.672;2023-04-07T10:33:43;100859.69;;;11.73;100.00